createdAt,value
2022-08-20T05:49:41.324Z,19.00
2022-08-20T05:52:09.134Z,19.00
2022-08-20T05:54:38.316Z,19.10
2022-08-20T05:57:06.127Z,19.10
2022-08-20T05:59:37.116Z,19.00
2022-08-20T06:02:24.805Z,19.00
2022-08-20T06:04:56.118Z,19.10
2022-08-20T06:07:24.093Z,19.20
2022-08-20T06:09:51.985Z,19.20
2022-08-20T06:12:19.793Z,19.20
2022-08-20T06:14:47.672Z,19.20
2022-08-20T06:17:21.284Z,19.20
2022-08-20T06:19:50.066Z,19.20
2022-08-20T06:22:22.434Z,19.20
2022-08-20T06:24:55.539Z,19.20
2022-08-20T06:27:24.175Z,19.20
2022-08-20T06:29:52.365Z,19.20
2022-08-20T06:32:32.053Z,19.20
2022-08-20T06:35:03.695Z,19.20
2022-08-20T06:37:33.027Z,19.20
2022-08-20T06:40:12.163Z,19.30
2022-08-20T06:42:45.767Z,19.20
2022-08-20T06:45:21.870Z,19.20
2022-08-20T06:47:49.768Z,19.20
2022-08-20T06:50:21.136Z,19.20
2022-08-20T06:52:52.461Z,19.20
2022-08-20T06:55:22.768Z,19.20
2022-08-20T06:58:01.903Z,19.10
2022-08-20T07:00:32.628Z,19.20
2022-08-20T07:03:01.513Z,19.30
2022-08-20T07:05:30.422Z,19.30
2022-08-20T07:07:59.093Z,19.30
2022-08-20T07:10:27.496Z,19.30
2022-08-20T07:12:55.739Z,19.30
2022-08-20T07:15:26.123Z,19.40
2022-08-20T07:18:00.908Z,19.40
2022-08-20T07:20:32.109Z,19.50
2022-08-20T07:23:00.931Z,19.50
2022-08-20T07:25:29.577Z,19.60
2022-08-20T07:28:02.974Z,19.60
2022-08-20T07:30:56.914Z,19.70
2022-08-20T07:33:28.154Z,19.80
2022-08-20T07:35:57.775Z,19.80
2022-08-20T07:38:28.184Z,19.80
2022-08-20T07:40:59.804Z,19.90
2022-08-20T07:43:28.743Z,19.80
2022-08-20T07:46:01.190Z,19.80
2022-08-20T07:48:31.961Z,19.80
2022-08-20T07:51:04.434Z,19.90
2022-08-20T07:53:37.826Z,19.90
2022-08-20T07:56:08.205Z,19.90
2022-08-20T07:58:36.973Z,19.90
2022-08-20T08:01:08.544Z,19.90
2022-08-20T08:03:49.293Z,19.90
2022-08-20T08:06:29.082Z,19.90
2022-08-20T08:09:08.735Z,20.00
2022-08-20T08:11:40.352Z,20.00
2022-08-20T08:14:11.017Z,20.00
2022-08-20T08:16:39.473Z,20.00
2022-08-20T08:19:12.256Z,20.10
2022-08-20T08:21:40.457Z,20.10
2022-08-20T08:24:08.124Z,20.10
2022-08-20T08:26:36.022Z,20.10
2022-08-20T08:29:04.468Z,20.10
2022-08-20T08:31:32.227Z,20.10
2022-08-20T08:33:59.900Z,20.10
2022-08-20T08:36:27.838Z,20.10
2022-08-20T08:38:56.844Z,20.10
2022-08-20T08:41:32.883Z,20.10
2022-08-20T08:44:08.407Z,20.10
2022-08-20T08:46:46.300Z,20.20
2022-08-20T08:49:19.912Z,20.30
2022-08-20T08:52:07.510Z,20.20
2022-08-20T08:54:36.336Z,20.20
2022-08-20T08:57:04.335Z,20.20
2022-08-20T08:59:55.037Z,20.20
2022-08-20T09:02:26.317Z,20.20
2022-08-20T09:04:56.857Z,20.20
2022-08-20T09:07:29.075Z,20.30
2022-08-20T09:09:56.812Z,20.20
2022-08-20T09:12:28.087Z,20.20
2022-08-20T09:14:55.912Z,20.20
2022-08-20T09:17:24.250Z,20.10
2022-08-20T09:19:52.642Z,20.10
2022-08-20T09:22:23.578Z,20.00
2022-08-20T09:24:52.086Z,20.00
2022-08-20T09:27:20.158Z,20.00
2022-08-20T09:29:49.215Z,20.10
2022-08-20T09:32:24.989Z,20.20
2022-08-20T09:34:57.008Z,20.20
2022-08-20T09:37:35.112Z,20.20
2022-08-20T09:40:07.390Z,20.20
2022-08-20T09:42:41.044Z,20.30
2022-08-20T09:45:10.765Z,20.30
2022-08-20T09:47:39.790Z,20.50
2022-08-20T09:50:24.228Z,20.40
2022-08-20T09:52:53.677Z,20.40
2022-08-20T09:55:33.947Z,20.30
2022-08-20T09:58:19.930Z,20.30
2022-08-20T10:00:48.220Z,20.30
2022-08-20T10:03:17.020Z,20.30
2022-08-20T10:05:45.010Z,20.30
2022-08-20T10:08:13.300Z,20.30
2022-08-20T10:10:41.063Z,20.30
2022-08-20T10:13:08.673Z,20.30
2022-08-20T10:15:41.962Z,20.30
2022-08-20T10:18:12.295Z,20.30
2022-08-20T10:20:40.637Z,20.40
2022-08-20T10:23:08.515Z,20.40
2022-08-20T10:25:36.265Z,20.40
2022-08-20T10:28:04.780Z,20.50
2022-08-20T10:30:32.899Z,20.40
2022-08-20T10:33:01.812Z,20.40
2022-08-20T10:35:30.382Z,20.30
2022-08-20T10:37:58.153Z,20.40
2022-08-20T10:40:26.103Z,20.30
2022-08-20T10:42:53.703Z,20.40
2022-08-20T10:45:22.505Z,20.40
2022-08-20T10:47:50.680Z,20.50
2022-08-20T10:50:20.275Z,20.50
2022-08-20T10:52:48.228Z,20.50
2022-08-20T10:55:16.680Z,20.50
2022-08-20T10:57:44.820Z,20.60
2022-08-20T11:00:18.118Z,20.60
2022-08-20T11:02:45.847Z,20.60
2022-08-20T11:05:13.495Z,20.60
2022-08-20T11:07:55.071Z,20.60
2022-08-20T11:10:34.198Z,20.70
2022-08-20T11:13:04.313Z,20.70
2022-08-20T11:15:33.186Z,20.90
2022-08-20T11:18:00.733Z,21.00
2022-08-20T11:20:28.748Z,21.00
2022-08-20T11:22:56.720Z,21.20
2022-08-20T11:25:25.284Z,21.20
2022-08-20T11:27:53.915Z,21.30
2022-08-20T11:30:34.795Z,21.20
2022-08-20T11:33:03.667Z,21.30
2022-08-20T11:35:50.072Z,21.20
2022-08-20T11:38:19.481Z,21.20
2022-08-20T11:40:47.234Z,21.20
2022-08-20T11:43:16.972Z,21.10
2022-08-20T11:45:51.453Z,21.10
2022-08-20T11:48:19.374Z,21.00
2022-08-20T11:50:48.614Z,21.00
2022-08-20T11:53:16.917Z,20.90
2022-08-20T11:55:45.048Z,20.80
2022-08-20T11:58:13.747Z,20.80
2022-08-20T12:00:41.816Z,20.90
2022-08-20T12:03:11.657Z,20.80
2022-08-20T12:05:41.677Z,20.70
2022-08-20T12:08:09.535Z,20.70
2022-08-20T12:10:39.031Z,20.80
2022-08-20T12:13:09.640Z,20.80
2022-08-20T12:15:38.255Z,20.80
2022-08-20T12:18:10.313Z,20.80
2022-08-20T12:20:38.564Z,20.70
2022-08-20T12:23:06.280Z,20.70
2022-08-20T12:25:34.714Z,20.70
2022-08-20T12:28:02.529Z,20.70
2022-08-20T12:30:30.194Z,20.70
2022-08-20T12:32:58.570Z,20.70
2022-08-20T12:35:27.454Z,20.70
2022-08-20T12:37:55.118Z,20.80
2022-08-20T12:40:32.309Z,20.80
2022-08-20T12:43:05.402Z,20.80
2022-08-20T12:45:34.395Z,20.90
2022-08-20T12:48:10.870Z,20.90
2022-08-20T12:50:41.034Z,21.00
2022-08-20T12:53:08.839Z,20.90
2022-08-20T12:55:36.913Z,20.90
2022-08-20T12:58:05.444Z,21.00
2022-08-20T13:00:38.980Z,21.00
2022-08-20T13:03:12.880Z,21.00
2022-08-20T13:05:41.476Z,20.90
2022-08-20T13:08:11.001Z,20.80
2022-08-20T13:10:44.615Z,20.80
2022-08-20T13:13:14.170Z,20.90
2022-08-20T13:15:41.914Z,20.90
2022-08-20T13:18:09.940Z,21.00
2022-08-20T13:20:37.945Z,21.10
2022-08-20T13:23:07.162Z,21.20
2022-08-20T13:25:35.208Z,21.20
2022-08-20T13:28:04.806Z,21.10
2022-08-20T13:30:35.191Z,21.10
2022-08-20T13:33:03.020Z,21.10
2022-08-20T13:35:31.515Z,21.00
2022-08-20T13:37:59.393Z,21.10
2022-08-20T13:40:27.227Z,21.10
2022-08-20T13:42:55.082Z,21.10
2022-08-20T13:45:22.995Z,21.10
2022-08-20T13:47:54.680Z,21.10
2022-08-20T13:50:27.616Z,21.10
2022-08-20T13:52:56.185Z,21.10
2022-08-20T13:55:26.275Z,21.00
2022-08-20T13:57:55.238Z,21.10
2022-08-20T14:00:32.239Z,21.10
2022-08-20T14:03:04.805Z,21.10
2022-08-20T14:05:34.135Z,21.20
2022-08-20T14:08:17.938Z,21.20
2022-08-20T14:10:47.176Z,21.20
2022-08-20T14:13:23.153Z,21.20
2022-08-20T14:15:51.692Z,21.30
2022-08-20T14:18:20.170Z,21.40
2022-08-20T14:20:50.250Z,21.30
2022-08-20T14:23:18.154Z,21.20
2022-08-20T14:25:48.038Z,21.20
2022-08-20T14:28:24.417Z,21.10
2022-08-20T14:30:53.625Z,21.20
2022-08-20T14:33:23.345Z,21.10
2022-08-20T14:35:51.820Z,21.10
2022-08-20T14:38:19.513Z,21.10
2022-08-20T14:40:47.815Z,21.10
2022-08-20T14:43:15.560Z,21.10
2022-08-20T14:45:43.443Z,21.20
2022-08-20T14:48:11.319Z,21.40
2022-08-20T14:50:39.487Z,21.50
2022-08-20T14:53:09.116Z,21.60
2022-08-20T14:55:38.435Z,21.60
2022-08-20T14:58:10.932Z,21.60
2022-08-20T15:00:39.280Z,21.70
2022-08-20T15:03:06.992Z,21.70
2022-08-20T15:05:39.743Z,21.80
2022-08-20T15:08:11.009Z,21.90
2022-08-20T15:10:39.492Z,22.10
2022-08-20T15:13:07.947Z,22.30
2022-08-20T15:15:35.758Z,22.40
2022-08-20T15:18:03.831Z,22.60
2022-08-20T15:20:33.904Z,22.60
2022-08-20T15:23:02.761Z,22.80
2022-08-20T15:25:36.600Z,22.90
2022-08-20T15:28:07.124Z,22.90
2022-08-20T15:30:35.453Z,22.60
2022-08-20T15:33:03.375Z,22.50
2022-08-20T15:35:31.280Z,22.30
2022-08-20T15:37:59.802Z,22.20
2022-08-20T15:40:30.376Z,22.20
2022-08-20T15:43:00.098Z,22.10
2022-08-20T15:45:28.503Z,22.00
2022-08-20T15:48:13.418Z,22.00
2022-08-20T15:51:03.244Z,22.00
2022-08-20T15:53:57.463Z,22.10
2022-08-20T15:56:54.375Z,22.00
2022-08-20T15:59:53.078Z,21.90
2022-08-20T16:02:58.915Z,21.90
2022-08-20T16:05:56.533Z,21.90
2022-08-20T16:08:43.412Z,21.90
2022-08-20T16:11:23.761Z,21.90
2022-08-20T16:13:59.922Z,21.80
2022-08-20T16:16:36.151Z,21.90
2022-08-20T16:19:05.523Z,21.90
2022-08-20T16:21:37.861Z,21.80
2022-08-20T16:24:07.470Z,21.80
2022-08-20T16:27:13.608Z,21.80
2022-08-20T16:29:54.204Z,21.80
2022-08-20T16:32:31.327Z,21.80
2022-08-20T16:35:20.836Z,21.80
2022-08-20T16:38:36.589Z,21.70
2022-08-20T16:41:41.870Z,21.70
2022-08-20T16:44:20.197Z,21.70
2022-08-20T16:46:54.477Z,21.70
2022-08-20T16:49:26.058Z,21.80
2022-08-20T16:51:54.861Z,21.80
2022-08-20T16:54:29.409Z,21.80
2022-08-20T16:57:05.276Z,21.80
2022-08-20T16:59:34.333Z,21.70
2022-08-20T17:02:07.258Z,21.70
2022-08-20T17:04:58.818Z,21.70
2022-08-20T17:07:46.147Z,21.70
2022-08-20T17:10:30.163Z,21.60
2022-08-20T17:13:06.731Z,21.60
2022-08-20T17:15:35.852Z,21.60
2022-08-20T17:18:28.931Z,21.60
2022-08-20T17:21:06.195Z,21.60
2022-08-20T17:23:54.826Z,21.50
2022-08-20T17:26:33.135Z,21.50
2022-08-20T17:29:04.617Z,21.50
2022-08-20T17:31:41.887Z,21.50
2022-08-20T17:34:23.161Z,21.40
2022-08-20T17:36:56.334Z,21.40
2022-08-20T17:39:26.474Z,21.40
2022-08-20T17:42:20.105Z,21.40
2022-08-20T17:45:08.840Z,21.40
2022-08-20T17:47:39.399Z,21.40
2022-08-20T17:50:19.780Z,21.30
2022-08-20T17:52:57.993Z,21.30
2022-08-20T17:55:26.850Z,21.30
2022-08-20T17:57:59.518Z,21.30
2022-08-20T18:00:28.758Z,21.20
2022-08-20T18:03:08.267Z,21.20
2022-08-20T18:05:37.559Z,21.20
2022-08-20T18:08:31.108Z,21.20
2022-08-20T18:11:28.398Z,21.20
2022-08-20T18:14:10.090Z,21.10
2022-08-20T18:17:16.686Z,21.10
2022-08-20T18:20:10.877Z,21.10
2022-08-20T18:22:49.837Z,21.10
2022-08-20T18:25:33.051Z,21.10
2022-08-20T18:28:38.866Z,21.10
2022-08-20T18:31:10.531Z,21.10
2022-08-20T18:33:43.908Z,21.10
2022-08-20T18:36:20.904Z,21.00
2022-08-20T18:39:12.379Z,21.00
2022-08-20T18:41:56.581Z,21.00
2022-08-20T18:44:43.975Z,21.00
2022-08-20T18:47:40.568Z,21.00
2022-08-20T18:50:16.882Z,20.90
2022-08-20T18:53:05.504Z,20.90
2022-08-20T18:55:40.688Z,20.90
2022-08-20T18:58:14.212Z,20.70
2022-08-20T19:00:49.895Z,20.70
2022-08-20T19:03:20.405Z,20.70
2022-08-20T19:06:06.608Z,20.80
2022-08-20T19:08:51.066Z,20.70
2022-08-20T19:11:27.656Z,20.60
2022-08-20T19:14:21.792Z,20.60
2022-08-20T19:16:56.322Z,20.60
2022-08-20T19:19:28.478Z,20.50
2022-08-20T19:22:02.369Z,20.50
2022-08-20T19:24:34.022Z,20.40
2022-08-20T19:27:07.889Z,20.30
2022-08-20T19:29:43.939Z,20.30
2022-08-20T19:32:28.604Z,20.20
2022-08-20T19:35:07.636Z,20.30
2022-08-20T19:37:50.991Z,20.30
2022-08-20T19:40:28.525Z,20.30
2022-08-20T19:42:59.914Z,20.20
2022-08-20T19:45:40.840Z,20.20
2022-08-20T19:48:14.246Z,20.20
2022-08-20T19:51:15.267Z,20.10
2022-08-20T19:53:47.994Z,20.00
2022-08-20T19:56:20.284Z,19.90
2022-08-20T19:59:03.030Z,19.90
2022-08-20T20:01:31.667Z,19.90
2022-08-20T20:04:14.259Z,19.90
2022-08-20T20:06:45.880Z,19.90
2022-08-20T20:09:19.941Z,20.00
2022-08-20T20:11:53.271Z,20.00
2022-08-20T20:14:26.463Z,20.00
2022-08-20T20:16:54.878Z,19.90
2022-08-20T20:19:26.811Z,19.90
2022-08-20T20:22:23.026Z,19.90
2022-08-20T20:25:02.809Z,19.90
2022-08-20T20:27:32.375Z,19.90
2022-08-20T20:30:11.273Z,19.80
2022-08-20T20:32:51.018Z,19.80
2022-08-20T20:35:35.560Z,19.90
2022-08-20T20:38:24.596Z,19.90
2022-08-20T20:40:58.257Z,19.80
2022-08-20T20:43:38.299Z,19.70
2022-08-20T20:46:22.770Z,19.70
2022-08-20T20:48:55.829Z,19.60
2022-08-20T20:51:31.525Z,19.60
2022-08-20T20:54:07.057Z,19.60
2022-08-20T20:56:44.000Z,19.50
2022-08-20T20:59:12.354Z,19.40
2022-08-20T21:01:48.489Z,19.40
2022-08-20T21:04:21.130Z,19.40
2022-08-20T21:06:50.317Z,19.40
2022-08-20T21:09:19.118Z,19.40
2022-08-20T21:11:47.980Z,19.40
2022-08-20T21:14:16.289Z,19.50
2022-08-20T21:16:44.451Z,19.50
2022-08-20T21:19:12.826Z,19.40
2022-08-20T21:21:42.370Z,19.30
2022-08-20T21:24:11.498Z,19.20
2022-08-20T21:26:40.236Z,19.10
2022-08-20T21:29:10.065Z,19.10
2022-08-20T21:31:43.554Z,19.10
2022-08-20T21:34:13.676Z,19.10
2022-08-20T21:36:41.901Z,19.10
2022-08-20T21:39:10.770Z,19.10
2022-08-20T21:41:39.663Z,19.10
2022-08-20T21:44:24.809Z,19.20
2022-08-20T21:46:54.822Z,19.20
2022-08-20T21:49:23.849Z,19.20
2022-08-20T21:51:52.542Z,19.20
2022-08-20T21:54:20.601Z,19.20
2022-08-20T21:56:54.722Z,19.20
2022-08-20T21:59:24.315Z,19.10
2022-08-20T22:01:52.405Z,19.10
2022-08-20T22:04:20.805Z,19.10
2022-08-20T22:06:49.187Z,19.20
2022-08-20T22:09:16.983Z,19.20
2022-08-20T22:11:45.086Z,19.10
2022-08-20T22:14:13.748Z,19.20
2022-08-20T22:16:42.935Z,19.20
2022-08-20T22:19:16.201Z,19.20
2022-08-20T22:21:45.075Z,19.20
2022-08-20T22:24:14.314Z,19.20
2022-08-20T22:26:42.670Z,19.20
2022-08-20T22:29:11.963Z,19.20
2022-08-20T22:31:41.953Z,19.10
2022-08-20T22:34:14.171Z,19.10
2022-08-20T22:36:42.205Z,19.00
2022-08-20T22:39:10.593Z,19.00
2022-08-20T22:41:38.926Z,19.00
2022-08-20T22:44:06.992Z,18.90
2022-08-20T22:46:42.500Z,18.80
2022-08-20T22:49:18.677Z,18.80
2022-08-20T22:51:46.824Z,18.80
2022-08-20T22:54:20.161Z,18.80
2022-08-20T22:56:47.936Z,18.90
2022-08-20T22:59:16.333Z,18.90
2022-08-20T23:01:45.833Z,18.80
2022-08-20T23:04:23.741Z,18.80
2022-08-20T23:06:52.004Z,18.80
2022-08-20T23:09:21.114Z,18.90
2022-08-20T23:11:50.244Z,18.90
2022-08-20T23:14:18.486Z,18.80
2022-08-20T23:16:49.238Z,18.80
2022-08-20T23:19:22.602Z,18.80
2022-08-20T23:21:52.102Z,18.80
2022-08-20T23:24:21.279Z,18.80
2022-08-20T23:26:53.124Z,18.80
2022-08-20T23:29:25.852Z,18.80
2022-08-20T23:31:55.440Z,18.80
2022-08-20T23:34:23.739Z,18.80
2022-08-20T23:36:52.821Z,18.90
2022-08-20T23:39:21.467Z,18.90
2022-08-20T23:41:49.412Z,18.90
2022-08-20T23:44:26.359Z,18.80
2022-08-20T23:47:03.130Z,18.70
2022-08-20T23:49:32.084Z,18.80
2022-08-20T23:52:00.937Z,18.70
2022-08-20T23:54:31.403Z,18.60
2022-08-20T23:56:59.368Z,18.60
2022-08-20T23:59:27.337Z,18.60
